sensor_id;sensor_type;location;lat;lon;timestamp;pressure;altitude;pressure_sealevel;temperature;humidity
57412;BME280;43247;52.828;-8.980;2023-02-01T00:00:16;102742.68;;;6.27;87.99
57412;BME280;43247;52.828;-8.980;2023-02-01T00:01:16;102735.14;;;6.24;88.14
57412;BME280;43247;52.828;-8.980;2023-02-01T00:02:16;102732.88;;;6.24;88.60
57412;BME280;43247;52.828;-8.980;2023-02-01T00:03:17;102733.16;;;6.23;88.55
57412;BME280;43247;52.828;-8.980;2023-02-01T00:04:17;102735.30;;;6.23;88.14
57412;BME280;43247;52.828;-8.980;2023-02-01T00:05:17;102734.91;;;6.22;88.54
57412;BME280;43247;52.828;-8.980;2023-02-01T00:06:18;102738.22;;;6.23;88.10
57412;BME280;43247;52.828;-8.980;2023-02-01T00:07:19;102739.42;;;6.23;88.24
57412;BME280;43247;52.828;-8.980;2023-02-01T00:08:19;102743.04;;;6.19;88.39
57412;BME280;43247;52.828;-8.980;2023-02-01T00:09:19;102741.40;;;6.14;89.22
57412;BME280;43247;52.828;-8.980;2023-02-01T00:10:19;102745.12;;;6.19;88.84
57412;BME280;43247;52.828;-8.980;2023-02-01T00:11:20;102745.10;;;6.18;88.81
57412;BME280;43247;52.828;-8.980;2023-02-01T00:12:20;102742.04;;;6.18;88.72
57412;BME280;43247;52.828;-8.980;2023-02-01T00:13:20;102740.45;;;6.15;88.84
57412;BME280;43247;52.828;-8.980;2023-02-01T00:14:21;102741.98;;;6.15;88.71
57412;BME280;43247;52.828;-8.980;2023-02-01T00:15:21;102741.16;;;6.14;88.83
57412;BME280;43247;52.828;-8.980;2023-02-01T00:16:23;102735.58;;;6.10;88.88
57412;BME280;43247;52.828;-8.980;2023-02-01T00:17:22;102738.85;;;6.13;88.88
57412;BME280;43247;52.828;-8.980;2023-02-01T00:18:23;102736.22;;;6.11;89.02
57412;BME280;43247;52.828;-8.980;2023-02-01T00:19:23;102734.56;;;6.12;89.00
57412;BME280;43247;52.828;-8.980;2023-02-01T00:20:23;102738.93;;;6.15;89.18
57412;BME280;43247;52.828;-8.980;2023-02-01T00:21:23;102735.20;;;6.13;89.39
57412;BME280;43247;52.828;-8.980;2023-02-01T00:22:24;102739.96;;;6.12;89.66
57412;BME280;43247;52.828;-8.980;2023-02-01T00:23:24;102732.04;;;6.11;89.65
57412;BME280;43247;52.828;-8.980;2023-02-01T00:24:25;102727.19;;;6.11;89.80
57412;BME280;43247;52.828;-8.980;2023-02-01T00:25:25;102728.08;;;6.12;89.73
57412;BME280;43247;52.828;-8.980;2023-02-01T00:26:30;102728.81;;;6.08;90.01
57412;BME280;43247;52.828;-8.980;2023-02-01T00:27:25;102728.47;;;6.12;89.92
57412;BME280;43247;52.828;-8.980;2023-02-01T00:28:26;102728.09;;;6.13;89.81
57412;BME280;43247;52.828;-8.980;2023-02-01T00:29:26;102726.74;;;6.06;90.07
57412;BME280;43247;52.828;-8.980;2023-02-01T00:30:26;102724.48;;;6.08;89.92
57412;BME280;43247;52.828;-8.980;2023-02-01T00:31:26;102722.94;;;6.09;89.95
57412;BME280;43247;52.828;-8.980;2023-02-01T00:32:26;102722.42;;;6.08;90.02
57412;BME280;43247;52.828;-8.980;2023-02-01T00:33:27;102722.72;;;6.08;90.11
57412;BME280;43247;52.828;-8.980;2023-02-01T00:34:27;102721.13;;;6.08;90.03
57412;BME280;43247;52.828;-8.980;2023-02-01T00:35:27;102716.43;;;6.07;90.18
57412;BME280;43247;52.828;-8.980;2023-02-01T00:36:28;102711.87;;;6.09;90.15
57412;BME280;43247;52.828;-8.980;2023-02-01T00:37:28;102707.53;;;6.06;90.23
57412;BME280;43247;52.828;-8.980;2023-02-01T00:38:30;102705.07;;;6.04;90.39
57412;BME280;43247;52.828;-8.980;2023-02-01T00:39:29;102704.84;;;6.07;90.35
57412;BME280;43247;52.828;-8.980;2023-02-01T00:40:29;102706.79;;;6.07;90.37
57412;BME280;43247;52.828;-8.980;2023-02-01T00:41:29;102709.53;;;6.08;90.18
57412;BME280;43247;52.828;-8.980;2023-02-01T00:42:29;102707.84;;;6.07;90.09
57412;BME280;43247;52.828;-8.980;2023-02-01T00:43:30;102706.58;;;6.05;90.44
57412;BME280;43247;52.828;-8.980;2023-02-01T00:44:30;102707.42;;;6.06;90.40
57412;BME280;43247;52.828;-8.980;2023-02-01T00:45:30;102703.48;;;6.05;90.34
57412;BME280;43247;52.828;-8.980;2023-02-01T00:46:31;102703.88;;;6.03;90.55
57412;BME280;43247;52.828;-8.980;2023-02-01T00:47:31;102706.92;;;6.02;90.47
57412;BME280;43247;52.828;-8.980;2023-02-01T00:48:31;102704.52;;;6.02;90.40
57412;BME280;43247;52.828;-8.980;2023-02-01T00:49:32;102700.61;;;6.00;90.47
57412;BME280;43247;52.828;-8.980;2023-02-01T00:50:32;102699.68;;;6.03;90.28
57412;BME280;43247;52.828;-8.980;2023-02-01T00:51:33;102701.01;;;6.03;90.27
57412;BME280;43247;52.828;-8.980;2023-02-01T00:52:33;102708.14;;;6.06;90.31
57412;BME280;43247;52.828;-8.980;2023-02-01T00:53:34;102708.21;;;6.05;90.26
57412;BME280;43247;52.828;-8.980;2023-02-01T00:54:34;102708.14;;;6.03;90.11
57412;BME280;43247;52.828;-8.980;2023-02-01T00:55:34;102705.98;;;6.04;90.11
57412;BME280;43247;52.828;-8.980;2023-02-01T00:56:34;102710.11;;;6.00;90.28
57412;BME280;43247;52.828;-8.980;2023-02-01T00:57:35;102704.50;;;5.99;90.33
57412;BME280;43247;52.828;-8.980;2023-02-01T00:58:35;102702.04;;;6.03;90.24
57412;BME280;43247;52.828;-8.980;2023-02-01T00:59:35;102702.86;;;6.00;90.34
57412;BME280;43247;52.828;-8.980;2023-02-01T01:00:36;102703.28;;;6.06;90.40
57412;BME280;43247;52.828;-8.980;2023-02-01T01:01:36;102707.65;;;6.09;90.24
57412;BME280;43247;52.828;-8.980;2023-02-01T01:02:36;102707.98;;;6.04;90.46
57412;BME280;43247;52.828;-8.980;2023-02-01T01:03:39;102710.25;;;6.03;90.52
57412;BME280;43247;52.828;-8.980;2023-02-01T01:04:37;102707.93;;;6.03;90.43
57412;BME280;43247;52.828;-8.980;2023-02-01T01:05:37;102705.38;;;6.06;90.37
57412;BME280;43247;52.828;-8.980;2023-02-01T01:06:38;102707.70;;;6.06;90.20
57412;BME280;43247;52.828;-8.980;2023-02-01T01:07:38;102703.18;;;6.06;90.42
57412;BME280;43247;52.828;-8.980;2023-02-01T01:08:40;102705.58;;;6.08;90.25
57412;BME280;43247;52.828;-8.980;2023-02-01T01:09:40;102700.58;;;6.10;90.12
57412;BME280;43247;52.828;-8.980;2023-02-01T01:10:40;102702.69;;;6.07;90.50
57412;BME280;43247;52.828;-8.980;2023-02-01T01:11:40;102707.98;;;6.06;90.43
57412;BME280;43247;52.828;-8.980;2023-02-01T01:12:40;102706.86;;;6.06;90.32
57412;BME280;43247;52.828;-8.980;2023-02-01T01:13:42;102705.17;;;6.11;90.27
57412;BME280;43247;52.828;-8.980;2023-02-01T01:14:42;102708.29;;;6.10;90.27
57412;BME280;43247;52.828;-8.980;2023-02-01T01:15:42;102710.66;;;6.11;90.24
57412;BME280;43247;52.828;-8.980;2023-02-01T01:16:42;102705.95;;;6.14;90.21
57412;BME280;43247;52.828;-8.980;2023-02-01T01:17:42;102708.17;;;6.14;90.28
57412;BME280;43247;52.828;-8.980;2023-02-01T01:18:43;102706.46;;;6.11;90.45
57412;BME280;43247;52.828;-8.980;2023-02-01T01:19:44;102709.13;;;6.11;90.43
57412;BME280;43247;52.828;-8.980;2023-02-01T01:20:44;102709.74;;;6.12;90.32
57412;BME280;43247;52.828;-8.980;2023-02-01T01:21:44;102711.64;;;6.15;90.42
57412;BME280;43247;52.828;-8.980;2023-02-01T01:22:45;102715.84;;;6.15;90.47
57412;BME280;43247;52.828;-8.980;2023-02-01T01:23:46;102711.04;;;6.12;90.61
57412;BME280;43247;52.828;-8.980;2023-02-01T01:24:45;102711.75;;;6.13;90.62
57412;BME280;43247;52.828;-8.980;2023-02-01T01:25:46;102708.33;;;6.14;90.38
57412;BME280;43247;52.828;-8.980;2023-02-01T01:26:46;102707.33;;;6.16;90.29
57412;BME280;43247;52.828;-8.980;2023-02-01T01:27:46;102704.63;;;6.17;90.28
57412;BME280;43247;52.828;-8.980;2023-02-01T01:28:47;102705.20;;;6.18;90.47
57412;BME280;43247;52.828;-8.980;2023-02-01T01:29:47;102706.42;;;6.20;90.53
57412;BME280;43247;52.828;-8.980;2023-02-01T01:30:47;102708.53;;;6.21;90.51
57412;BME280;43247;52.828;-8.980;2023-02-01T01:31:47;102705.92;;;6.20;90.58
57412;BME280;43247;52.828;-8.980;2023-02-01T01:32:47;102707.59;;;6.21;90.73
57412;BME280;43247;52.828;-8.980;2023-02-01T01:33:50;102711.36;;;6.23;90.62
57412;BME280;43247;52.828;-8.980;2023-02-01T01:34:49;102699.88;;;6.23;90.68
57412;BME280;43247;52.828;-8.980;2023-02-01T01:35:49;102704.76;;;6.25;90.60
57412;BME280;43247;52.828;-8.980;2023-02-01T01:36:50;102702.00;;;6.26;90.69
57412;BME280;43247;52.828;-8.980;2023-02-01T01:37:50;102704.06;;;6.25;90.88
57412;BME280;43247;52.828;-8.980;2023-02-01T01:38:51;102706.12;;;6.27;90.75
57412;BME280;43247;52.828;-8.980;2023-02-01T01:39:51;102708.64;;;6.31;90.48
57412;BME280;43247;52.828;-8.980;2023-02-01T01:40:52;102710.90;;;6.29;90.69
57412;BME280;43247;52.828;-8.980;2023-02-01T01:41:52;102708.57;;;6.28;90.72
57412;BME280;43247;52.828;-8.980;2023-02-01T01:42:53;102715.35;;;6.28;90.58
57412;BME280;43247;52.828;-8.980;2023-02-01T01:43:56;102716.05;;;6.32;90.59
57412;BME280;43247;52.828;-8.980;2023-02-01T01:44:57;102713.04;;;6.30;90.76
57412;BME280;43247;52.828;-8.980;2023-02-01T01:45:53;102716.39;;;6.33;90.80
57412;BME280;43247;52.828;-8.980;2023-02-01T01:46:54;102719.09;;;6.33;90.88
57412;BME280;43247;52.828;-8.980;2023-02-01T01:47:58;102719.76;;;6.36;90.84
57412;BME280;43247;52.828;-8.980;2023-02-01T01:49:01;102720.23;;;6.34;90.82
57412;BME280;43247;52.828;-8.980;2023-02-01T01:49:54;102722.35;;;6.35;90.68
57412;BME280;43247;52.828;-8.980;2023-02-01T01:50:58;102718.29;;;6.36;90.65
57412;BME280;43247;52.828;-8.980;2023-02-01T01:51:56;102717.99;;;6.37;90.60
57412;BME280;43247;52.828;-8.980;2023-02-01T01:52:57;102717.82;;;6.36;90.61
57412;BME280;43247;52.828;-8.980;2023-02-01T01:54:00;102708.90;;;6.39;90.43
57412;BME280;43247;52.828;-8.980;2023-02-01T01:54:55;102711.55;;;6.42;90.13
57412;BME280;43247;52.828;-8.980;2023-02-01T01:55:56;102717.10;;;6.39;90.09
57412;BME280;43247;52.828;-8.980;2023-02-01T01:57:00;102718.57;;;6.39;90.05
57412;BME280;43247;52.828;-8.980;2023-02-01T01:58:00;102718.43;;;6.37;90.16
57412;BME280;43247;52.828;-8.980;2023-02-01T01:58:58;102712.74;;;6.38;90.30
57412;BME280;43247;52.828;-8.980;2023-02-01T02:00:01;102713.12;;;6.43;89.75
57412;BME280;43247;52.828;-8.980;2023-02-01T02:00:58;102714.78;;;6.40;89.79
57412;BME280;43247;52.828;-8.980;2023-02-01T02:01:58;102714.53;;;6.37;89.99
57412;BME280;43247;52.828;-8.980;2023-02-01T02:03:02;102713.56;;;6.37;89.98
57412;BME280;43247;52.828;-8.980;2023-02-01T02:04:00;102714.24;;;6.38;89.97
57412;BME280;43247;52.828;-8.980;2023-02-01T02:04:59;102710.93;;;6.35;90.01
57412;BME280;43247;52.828;-8.980;2023-02-01T02:06:02;102710.73;;;6.37;89.89
57412;BME280;43247;52.828;-8.980;2023-02-01T02:07:03;102705.84;;;6.39;89.69
57412;BME280;43247;52.828;-8.980;2023-02-01T02:08:00;102706.42;;;6.37;89.68
57412;BME280;43247;52.828;-8.980;2023-02-01T02:09:01;102702.00;;;6.33;89.80
57412;BME280;43247;52.828;-8.980;2023-02-01T02:10:03;102704.27;;;6.34;89.70
57412;BME280;43247;52.828;-8.980;2023-02-01T02:11:02;102694.58;;;6.36;89.63
57412;BME280;43247;52.828;-8.980;2023-02-01T02:12:03;102688.82;;;6.33;89.88
57412;BME280;43247;52.828;-8.980;2023-02-01T02:13:03;102686.31;;;6.32;89.93
57412;BME280;43247;52.828;-8.980;2023-02-01T02:14:05;102682.23;;;6.31;89.83
57412;BME280;43247;52.828;-8.980;2023-02-01T02:15:04;102679.40;;;6.28;89.84
57412;BME280;43247;52.828;-8.980;2023-02-01T02:16:16;102680.25;;;6.31;89.91
57412;BME280;43247;52.828;-8.980;2023-02-01T02:17:14;102683.98;;;6.32;89.79
57412;BME280;43247;52.828;-8.980;2023-02-01T02:18:09;102685.74;;;6.28;89.87
57412;BME280;43247;52.828;-8.980;2023-02-01T02:21:14;102694.28;;;6.27;89.90
57412;BME280;43247;52.828;-8.980;2023-02-01T02:27:15;102702.71;;;6.30;89.69
57412;BME280;43247;52.828;-8.980;2023-02-01T02:28:16;102702.23;;;6.26;90.03
57412;BME280;43247;52.828;-8.980;2023-02-01T02:29:19;102701.38;;;6.24;90.16
57412;BME280;43247;52.828;-8.980;2023-02-01T02:30:22;102703.83;;;6.26;90.04
57412;BME280;43247;52.828;-8.980;2023-02-01T02:31:19;102703.49;;;6.25;90.09
57412;BME280;43247;52.828;-8.980;2023-02-01T02:34:15;102700.57;;;6.24;89.97
57412;BME280;43247;52.828;-8.980;2023-02-01T02:35:13;102700.48;;;6.23;90.08
57412;BME280;43247;52.828;-8.980;2023-02-01T02:36:16;102704.67;;;6.23;90.07
57412;BME280;43247;52.828;-8.980;2023-02-01T02:37:19;102704.13;;;6.22;90.08
57412;BME280;43247;52.828;-8.980;2023-02-01T02:38:17;102702.07;;;6.24;90.10
57412;BME280;43247;52.828;-8.980;2023-02-01T02:39:17;102697.44;;;6.25;90.16
57412;BME280;43247;52.828;-8.980;2023-02-01T02:40:17;102698.90;;;6.28;90.14
57412;BME280;43247;52.828;-8.980;2023-02-01T02:41:16;102696.32;;;6.29;90.07
57412;BME280;43247;52.828;-8.980;2023-02-01T02:42:16;102701.37;;;6.31;89.96
57412;BME280;43247;52.828;-8.980;2023-02-01T02:43:20;102698.05;;;6.30;89.73
57412;BME280;43247;52.828;-8.980;2023-02-01T02:44:16;102703.05;;;6.28;89.95
57412;BME280;43247;52.828;-8.980;2023-02-01T02:45:19;102709.92;;;6.28;89.87
57412;BME280;43247;52.828;-8.980;2023-02-01T02:46:19;102702.76;;;6.30;89.58
57412;BME280;43247;52.828;-8.980;2023-02-01T02:47:19;102719.31;;;6.32;89.51
57412;BME280;43247;52.828;-8.980;2023-02-01T02:48:19;102707.99;;;6.38;88.99
57412;BME280;43247;52.828;-8.980;2023-02-01T02:49:20;102711.90;;;6.46;88.66
57412;BME280;43247;52.828;-8.980;2023-02-01T02:50:20;102697.72;;;6.45;89.06
57412;BME280;43247;52.828;-8.980;2023-02-01T02:51:21;102687.10;;;6.44;89.44
57412;BME280;43247;52.828;-8.980;2023-02-01T02:52:19;102691.46;;;6.37;89.95
57412;BME280;43247;52.828;-8.980;2023-02-01T02:53:18;102690.64;;;6.40;90.07
57412;BME280;43247;52.828;-8.980;2023-02-01T02:54:20;102687.02;;;6.46;89.89
57412;BME280;43247;52.828;-8.980;2023-02-01T02:55:17;102689.75;;;6.44;90.00
57412;BME280;43247;52.828;-8.980;2023-02-01T02:56:18;102682.81;;;6.45;90.11
57412;BME280;43247;52.828;-8.980;2023-02-01T02:57:20;102680.97;;;6.47;90.05
57412;BME280;43247;52.828;-8.980;2023-02-01T02:58:19;102677.43;;;6.44;90.22
57412;BME280;43247;52.828;-8.980;2023-02-01T02:59:21;102675.85;;;6.44;90.48
57412;BME280;43247;52.828;-8.980;2023-02-01T03:00:21;102677.66;;;6.43;90.52
57412;BME280;43247;52.828;-8.980;2023-02-01T03:01:19;102672.78;;;6.41;90.69
57412;BME280;43247;52.828;-8.980;2023-02-01T03:02:20;102672.25;;;6.43;90.63
57412;BME280;43247;52.828;-8.980;2023-02-01T03:03:19;102675.49;;;6.43;90.79
57412;BME280;43247;52.828;-8.980;2023-02-01T03:04:19;102670.98;;;6.43;90.84
57412;BME280;43247;52.828;-8.980;2023-02-01T03:05:19;102669.75;;;6.45;90.68
57412;BME280;43247;52.828;-8.980;2023-02-01T03:06:22;102669.41;;;6.45;90.64
57412;BME280;43247;52.828;-8.980;2023-02-01T03:08:21;102672.59;;;6.43;90.81
57412;BME280;43247;52.828;-8.980;2023-02-01T03:09:23;102671.26;;;6.43;90.71
57412;BME280;43247;52.828;-8.980;2023-02-01T03:10:27;102664.34;;;6.43;90.64
57412;BME280;43247;52.828;-8.980;2023-02-01T03:11:21;102665.35;;;6.42;90.82
57412;BME280;43247;52.828;-8.980;2023-02-01T03:12:22;102659.93;;;6.45;90.64
57412;BME280;43247;52.828;-8.980;2023-02-01T03:13:30;102658.35;;;6.46;90.65
57412;BME280;43247;52.828;-8.980;2023-02-01T03:14:24;102657.21;;;6.42;90.53
57412;BME280;43247;52.828;-8.980;2023-02-01T03:15:26;102658.79;;;6.36;90.67
57412;BME280;43247;52.828;-8.980;2023-02-01T03:16:25;102661.33;;;6.40;90.85
57412;BME280;43247;52.828;-8.980;2023-02-01T03:17:27;102661.36;;;6.39;90.66
57412;BME280;43247;52.828;-8.980;2023-02-01T03:18:28;102660.87;;;6.42;90.75
57412;BME280;43247;52.828;-8.980;2023-02-01T03:19:27;102662.34;;;6.34;91.28
57412;BME280;43247;52.828;-8.980;2023-02-01T03:20:25;102667.23;;;6.38;90.69
57412;BME280;43247;52.828;-8.980;2023-02-01T03:21:26;102668.19;;;6.38;90.55
57412;BME280;43247;52.828;-8.980;2023-02-01T03:22:27;102668.90;;;6.36;90.49
57412;BME280;43247;52.828;-8.980;2023-02-01T03:23:27;102668.09;;;6.36;90.29
57412;BME280;43247;52.828;-8.980;2023-02-01T03:24:29;102669.79;;;6.38;90.41
57412;BME280;43247;52.828;-8.980;2023-02-01T03:25:28;102665.59;;;6.36;90.42
57412;BME280;43247;52.828;-8.980;2023-02-01T03:26:28;102663.63;;;6.34;90.56
57412;BME280;43247;52.828;-8.980;2023-02-01T03:27:30;102663.19;;;6.33;90.81
57412;BME280;43247;52.828;-8.980;2023-02-01T03:28:28;102662.05;;;6.31;90.76
57412;BME280;43247;52.828;-8.980;2023-02-01T03:29:32;102657.84;;;6.34;90.42
57412;BME280;43247;52.828;-8.980;2023-02-01T03:30:31;102660.49;;;6.29;90.58
57412;BME280;43247;52.828;-8.980;2023-02-01T03:31:28;102662.42;;;6.30;90.33
57412;BME280;43247;52.828;-8.980;2023-02-01T03:32:28;102662.73;;;6.31;90.42
57412;BME280;43247;52.828;-8.980;2023-02-01T03:33:29;102661.62;;;6.31;90.31
57412;BME280;43247;52.828;-8.980;2023-02-01T03:34:28;102664.45;;;6.30;90.26
57412;BME280;43247;52.828;-8.980;2023-02-01T03:35:32;102659.45;;;6.30;90.44
57412;BME280;43247;52.828;-8.980;2023-02-01T03:36:31;102659.51;;;6.31;90.37
57412;BME280;43247;52.828;-8.980;2023-02-01T03:37:29;102655.78;;;6.30;90.46
57412;BME280;43247;52.828;-8.980;2023-02-01T03:38:32;102655.96;;;6.30;90.38
57412;BME280;43247;52.828;-8.980;2023-02-01T03:39:32;102656.15;;;6.30;90.60
57412;BME280;43247;52.828;-8.980;2023-02-01T03:40:32;102659.92;;;6.28;90.54
57412;BME280;43247;52.828;-8.980;2023-02-01T03:41:35;102664.97;;;6.30;90.56
57412;BME280;43247;52.828;-8.980;2023-02-01T03:42:37;102659.48;;;6.28;90.63
57412;BME280;43247;52.828;-8.980;2023-02-01T03:43:34;102659.84;;;6.31;90.56
57412;BME280;43247;52.828;-8.980;2023-02-01T03:44:33;102662.10;;;6.29;90.78
57412;BME280;43247;52.828;-8.980;2023-02-01T03:45:35;102659.10;;;6.30;90.75
57412;BME280;43247;52.828;-8.980;2023-02-01T03:46:33;102658.60;;;6.28;90.78
57412;BME280;43247;52.828;-8.980;2023-02-01T03:47:35;102649.61;;;6.29;90.89
57412;BME280;43247;52.828;-8.980;2023-02-01T03:48:32;102651.00;;;6.32;90.61
57412;BME280;43247;52.828;-8.980;2023-02-01T03:49:34;102648.74;;;6.31;90.72
57412;BME280;43247;52.828;-8.980;2023-02-01T03:50:34;102644.94;;;6.34;90.47
57412;BME280;43247;52.828;-8.980;2023-02-01T03:51:33;102646.75;;;6.31;90.51
57412;BME280;43247;52.828;-8.980;2023-02-01T03:52:37;102648.12;;;6.28;90.98
57412;BME280;43247;52.828;-8.980;2023-02-01T03:53:35;102647.47;;;6.32;90.62
57412;BME280;43247;52.828;-8.980;2023-02-01T03:54:35;102646.43;;;6.32;90.54
57412;BME280;43247;52.828;-8.980;2023-02-01T03:55:35;102652.03;;;6.29;90.66
57412;BME280;43247;52.828;-8.980;2023-02-01T03:56:37;102644.83;;;6.34;90.36
57412;BME280;43247;52.828;-8.980;2023-02-01T03:57:39;102653.23;;;6.30;90.49
57412;BME280;43247;52.828;-8.980;2023-02-01T03:58:35;102653.63;;;6.31;90.52
57412;BME280;43247;52.828;-8.980;2023-02-01T03:59:39;102657.77;;;6.33;90.41
57412;BME280;43247;52.828;-8.980;2023-02-01T04:00:36;102654.86;;;6.33;90.44
57412;BME280;43247;52.828;-8.980;2023-02-01T04:01:36;102645.96;;;6.36;90.34
57412;BME280;43247;52.828;-8.980;2023-02-01T04:02:36;102647.33;;;6.36;90.45
57412;BME280;43247;52.828;-8.980;2023-02-01T04:03:36;102643.03;;;6.37;90.51
57412;BME280;43247;52.828;-8.980;2023-02-01T04:04:37;102643.56;;;6.36;90.44
57412;BME280;43247;52.828;-8.980;2023-02-01T04:05:37;102643.98;;;6.37;90.57
57412;BME280;43247;52.828;-8.980;2023-02-01T04:06:37;102647.75;;;6.38;90.66
57412;BME280;43247;52.828;-8.980;2023-02-01T04:07:37;102647.09;;;6.37;90.81
57412;BME280;43247;52.828;-8.980;2023-02-01T04:08:37;102656.72;;;6.40;90.75
57412;BME280;43247;52.828;-8.980;2023-02-01T04:09:38;102655.09;;;6.40;90.66
57412;BME280;43247;52.828;-8.980;2023-02-01T04:10:38;102655.11;;;6.40;90.63
57412;BME280;43247;52.828;-8.980;2023-02-01T04:11:38;102650.59;;;6.45;90.36
57412;BME280;43247;52.828;-8.980;2023-02-01T04:12:38;102653.51;;;6.42;90.48
57412;BME280;43247;52.828;-8.980;2023-02-01T04:13:39;102648.79;;;6.42;90.52
57412;BME280;43247;52.828;-8.980;2023-02-01T04:14:39;102647.49;;;6.45;90.32
57412;BME280;43247;52.828;-8.980;2023-02-01T04:15:40;102648.78;;;6.43;90.43
57412;BME280;43247;52.828;-8.980;2023-02-01T04:16:39;102643.90;;;6.44;90.42
57412;BME280;43247;52.828;-8.980;2023-02-01T04:17:40;102647.77;;;6.48;90.15
57412;BME280;43247;52.828;-8.980;2023-02-01T04:18:40;102652.32;;;6.46;90.04
57412;BME280;43247;52.828;-8.980;2023-02-01T04:19:41;102654.49;;;6.45;90.23
57412;BME280;43247;52.828;-8.980;2023-02-01T04:20:42;102656.70;;;6.48;90.11
57412;BME280;43247;52.828;-8.980;2023-02-01T04:21:41;102656.20;;;6.48;90.08
57412;BME280;43247;52.828;-8.980;2023-02-01T04:22:41;102653.90;;;6.55;89.63
57412;BME280;43247;52.828;-8.980;2023-02-01T04:23:41;102654.74;;;6.52;89.24
57412;BME280;43247;52.828;-8.980;2023-02-01T04:24:41;102652.69;;;6.51;89.33
57412;BME280;43247;52.828;-8.980;2023-02-01T04:25:42;102650.02;;;6.50;89.71
57412;BME280;43247;52.828;-8.980;2023-02-01T04:26:42;102648.09;;;6.52;89.42
57412;BME280;43247;52.828;-8.980;2023-02-01T04:27:43;102646.40;;;6.51;89.43
57412;BME280;43247;52.828;-8.980;2023-02-01T04:28:43;102643.66;;;6.52;89.48
57412;BME280;43247;52.828;-8.980;2023-02-01T04:29:43;102644.11;;;6.51;89.60
57412;BME280;43247;52.828;-8.980;2023-02-01T04:30:45;102650.22;;;6.55;89.65
57412;BME280;43247;52.828;-8.980;2023-02-01T04:31:44;102651.22;;;6.53;89.87
57412;BME280;43247;52.828;-8.980;2023-02-01T04:32:44;102647.04;;;6.55;89.88
57412;BME280;43247;52.828;-8.980;2023-02-01T04:33:44;102646.48;;;6.55;89.94
57412;BME280;43247;52.828;-8.980;2023-02-01T04:34:45;102647.51;;;6.58;89.86
57412;BME280;43247;52.828;-8.980;2023-02-01T04:35:45;102651.73;;;6.57;89.61
57412;BME280;43247;52.828;-8.980;2023-02-01T04:36:45;102647.92;;;6.56;89.89
57412;BME280;43247;52.828;-8.980;2023-02-01T04:37:45;102652.59;;;6.56;89.91
57412;BME280;43247;52.828;-8.980;2023-02-01T04:38:45;102651.85;;;6.55;90.12
57412;BME280;43247;52.828;-8.980;2023-02-01T04:39:46;102651.85;;;6.56;90.08
57412;BME280;43247;52.828;-8.980;2023-02-01T04:40:47;102652.52;;;6.57;89.88
57412;BME280;43247;52.828;-8.980;2023-02-01T04:41:47;102652.08;;;6.61;89.77
57412;BME280;43247;52.828;-8.980;2023-02-01T04:42:47;102654.98;;;6.61;89.75
57412;BME280;43247;52.828;-8.980;2023-02-01T04:43:47;102657.04;;;6.60;89.71
57412;BME280;43247;52.828;-8.980;2023-02-01T04:44:47;102652.18;;;6.59;89.97
57412;BME280;43247;52.828;-8.980;2023-02-01T04:45:48;102653.70;;;6.60;89.93
57412;BME280;43247;52.828;-8.980;2023-02-01T04:46:48;102648.20;;;6.61;89.89
57412;BME280;43247;52.828;-8.980;2023-02-01T04:47:48;102646.53;;;6.64;89.91
57412;BME280;43247;52.828;-8.980;2023-02-01T04:48:48;102640.76;;;6.63;90.07
57412;BME280;43247;52.828;-8.980;2023-02-01T04:49:48;102640.97;;;6.63;89.84
57412;BME280;43247;52.828;-8.980;2023-02-01T04:50:48;102642.78;;;6.64;89.86
57412;BME280;43247;52.828;-8.980;2023-02-01T04:51:49;102642.23;;;6.65;90.02
57412;BME280;43247;52.828;-8.980;2023-02-01T04:52:49;102644.86;;;6.65;89.99
57412;BME280;43247;52.828;-8.980;2023-02-01T04:53:49;102645.37;;;6.66;89.93
57412;BME280;43247;52.828;-8.980;2023-02-01T04:54:49;102645.42;;;6.67;89.96
57412;BME280;43247;52.828;-8.980;2023-02-01T04:55:49;102640.86;;;6.71;89.96
57412;BME280;43247;52.828;-8.980;2023-02-01T04:56:49;102643.83;;;6.70;90.06
57412;BME280;43247;52.828;-8.980;2023-02-01T04:57:50;102651.56;;;6.73;89.95
57412;BME280;43247;52.828;-8.980;2023-02-01T04:58:50;102649.04;;;6.72;90.01
57412;BME280;43247;52.828;-8.980;2023-02-01T04:59:50;102651.66;;;6.71;90.03
57412;BME280;43247;52.828;-8.980;2023-02-01T05:00:50;102654.39;;;6.71;90.12
57412;BME280;43247;52.828;-8.980;2023-02-01T05:01:51;102653.81;;;6.71;90.20
57412;BME280;43247;52.828;-8.980;2023-02-01T05:02:51;102658.91;;;6.67;90.50
57412;BME280;43247;52.828;-8.980;2023-02-01T05:03:51;102654.63;;;6.71;90.38
57412;BME280;43247;52.828;-8.980;2023-02-01T05:04:52;102662.71;;;6.71;90.45
57412;BME280;43247;52.828;-8.980;2023-02-01T05:05:52;102655.07;;;6.69;90.35
57412;BME280;43247;52.828;-8.980;2023-02-01T05:06:53;102651.48;;;6.71;90.22
57412;BME280;43247;52.828;-8.980;2023-02-01T05:07:53;102647.11;;;6.69;90.14
57412;BME280;43247;52.828;-8.980;2023-02-01T05:08:53;102648.98;;;6.68;90.20
57412;BME280;43247;52.828;-8.980;2023-02-01T05:09:54;102645.60;;;6.69;90.18
57412;BME280;43247;52.828;-8.980;2023-02-01T05:10:54;102643.40;;;6.72;90.15
57412;BME280;43247;52.828;-8.980;2023-02-01T05:11:54;102642.87;;;6.74;90.22
57412;BME280;43247;52.828;-8.980;2023-02-01T05:12:55;102643.03;;;6.76;90.14
57412;BME280;43247;52.828;-8.980;2023-02-01T05:13:55;102638.48;;;6.74;90.17
57412;BME280;43247;52.828;-8.980;2023-02-01T05:14:55;102640.90;;;6.76;90.25
57412;BME280;43247;52.828;-8.980;2023-02-01T05:15:56;102635.90;;;6.75;90.22
57412;BME280;43247;52.828;-8.980;2023-02-01T05:16:56;102634.52;;;6.83;90.10
57412;BME280;43247;52.828;-8.980;2023-02-01T05:17:57;102634.64;;;6.81;90.23
57412;BME280;43247;52.828;-8.980;2023-02-01T05:18:57;102634.42;;;6.81;90.20
57412;BME280;43247;52.828;-8.980;2023-02-01T05:19:57;102634.23;;;6.82;90.20
57412;BME280;43247;52.828;-8.980;2023-02-01T05:20:58;102635.93;;;6.79;90.33
57412;BME280;43247;52.828;-8.980;2023-02-01T05:21:58;102637.52;;;6.79;90.22
57412;BME280;43247;52.828;-8.980;2023-02-01T05:22:59;102642.44;;;6.79;90.29
57412;BME280;43247;52.828;-8.980;2023-02-01T05:23:59;102643.07;;;6.79;90.34
57412;BME280;43247;52.828;-8.980;2023-02-01T05:25:00;102645.28;;;6.79;90.28